sensor_id;sensor_type;location;lat;lon;timestamp;P1;durP1;ratioP1;P2;durP2;ratioP2
22097;SDS011;11215;51.938;8.464;2023-06-14T00:00:07;3.23;;;2.47;;
22097;SDS011;11215;51.938;8.464;2023-06-14T00:02:33;2.40;;;2.13;;
22097;SDS011;11215;51.938;8.464;2023-06-14T00:04:58;4.83;;;2.40;;
22097;SDS011;11215;51.938;8.464;2023-06-14T00:07:41;4.10;;;2.37;;
22097;SDS011;11215;51.938;8.464;2023-06-14T00:10:13;3.23;;;2.50;;
22097;SDS011;11215;51.938;8.464;2023-06-14T00:12:39;7.20;;;2.73;;
22097;SDS011;11215;51.938;8.464;2023-06-14T00:15:05;4.17;;;2.60;;
22097;SDS011;11215;51.938;8.464;2023-06-14T00:17:32;5.37;;;2.60;;
22097;SDS011;11215;51.938;8.464;2023-06-14T00:19:59;2.40;;;2.20;;
22097;SDS011;11215;51.938;8.464;2023-06-14T00:22:25;4.87;;;2.50;;
22097;SDS011;11215;51.938;8.464;2023-06-14T00:24:54;5.47;;;2.50;;
22097;SDS011;11215;51.938;8.464;2023-06-14T00:27:19;4.97;;;2.57;;
22097;SDS011;11215;51.938;8.464;2023-06-14T00:29:45;4.70;;;3.00;;
22097;SDS011;11215;51.938;8.464;2023-06-14T00:32:11;4.77;;;2.60;;
22097;SDS011;11215;51.938;8.464;2023-06-14T00:34:36;6.47;;;2.57;;
22097;SDS011;11215;51.938;8.464;2023-06-14T00:37:02;4.97;;;2.80;;
22097;SDS011;11215;51.938;8.464;2023-06-14T00:39:28;5.30;;;2.67;;
22097;SDS011;11215;51.938;8.464;2023-06-14T00:41:53;3.40;;;2.37;;
22097;SDS011;11215;51.938;8.464;2023-06-14T00:44:19;2.93;;;2.47;;
22097;SDS011;11215;51.938;8.464;2023-06-14T00:46:46;3.57;;;2.33;;
22097;SDS011;11215;51.938;8.464;2023-06-14T00:49:12;4.27;;;2.53;;
22097;SDS011;11215;51.938;8.464;2023-06-14T00:51:40;3.23;;;2.40;;
22097;SDS011;11215;51.938;8.464;2023-06-14T00:54:07;3.83;;;2.30;;
22097;SDS011;11215;51.938;8.464;2023-06-14T00:56:32;3.53;;;2.67;;
22097;SDS011;11215;51.938;8.464;2023-06-14T00:59:00;2.97;;;2.37;;
22097;SDS011;11215;51.938;8.464;2023-06-14T01:01:27;3.73;;;2.60;;
22097;SDS011;11215;51.938;8.464;2023-06-14T01:03:53;3.17;;;1.97;;
22097;SDS011;11215;51.938;8.464;2023-06-14T01:06:27;4.60;;;2.33;;
22097;SDS011;11215;51.938;8.464;2023-06-14T01:09:03;4.33;;;2.70;;
22097;SDS011;11215;51.938;8.464;2023-06-14T01:11:41;2.40;;;2.20;;
22097;SDS011;11215;51.938;8.464;2023-06-14T01:14:26;2.87;;;2.23;;
22097;SDS011;11215;51.938;8.464;2023-06-14T01:16:54;3.67;;;2.57;;
22097;SDS011;11215;51.938;8.464;2023-06-14T01:19:22;3.87;;;2.57;;
22097;SDS011;11215;51.938;8.464;2023-06-14T01:21:51;5.40;;;2.70;;
22097;SDS011;11215;51.938;8.464;2023-06-14T01:24:18;6.17;;;2.30;;
22097;SDS011;11215;51.938;8.464;2023-06-14T01:26:52;4.07;;;2.57;;
22097;SDS011;11215;51.938;8.464;2023-06-14T01:29:24;5.77;;;2.57;;
22097;SDS011;11215;51.938;8.464;2023-06-14T01:31:53;3.67;;;2.50;;
22097;SDS011;11215;51.938;8.464;2023-06-14T01:34:19;4.30;;;2.90;;
22097;SDS011;11215;51.938;8.464;2023-06-14T01:36:45;5.73;;;2.70;;
22097;SDS011;11215;51.938;8.464;2023-06-14T01:39:14;5.33;;;3.27;;
22097;SDS011;11215;51.938;8.464;2023-06-14T01:41:41;6.57;;;2.73;;
22097;SDS011;11215;51.938;8.464;2023-06-14T01:44:08;3.00;;;2.40;;
22097;SDS011;11215;51.938;8.464;2023-06-14T01:46:35;4.43;;;2.37;;
22097;SDS011;11215;51.938;8.464;2023-06-14T01:49:02;3.73;;;2.57;;
22097;SDS011;11215;51.938;8.464;2023-06-14T01:51:28;3.93;;;2.77;;
22097;SDS011;11215;51.938;8.464;2023-06-14T01:53:54;2.63;;;2.43;;
22097;SDS011;11215;51.938;8.464;2023-06-14T01:56:20;6.77;;;3.00;;
22097;SDS011;11215;51.938;8.464;2023-06-14T01:58:46;6.80;;;2.80;;
22097;SDS011;11215;51.938;8.464;2023-06-14T02:01:13;6.07;;;2.47;;
22097;SDS011;11215;51.938;8.464;2023-06-14T02:03:41;4.67;;;2.40;;
22097;SDS011;11215;51.938;8.464;2023-06-14T02:06:07;4.37;;;2.57;;
22097;SDS011;11215;51.938;8.464;2023-06-14T02:08:33;4.17;;;2.77;;
22097;SDS011;11215;51.938;8.464;2023-06-14T02:10:58;4.30;;;2.33;;
22097;SDS011;11215;51.938;8.464;2023-06-14T02:13:24;5.07;;;2.60;;
22097;SDS011;11215;51.938;8.464;2023-06-14T02:15:50;3.60;;;2.27;;
22097;SDS011;11215;51.938;8.464;2023-06-14T02:18:19;4.03;;;2.77;;
22097;SDS011;11215;51.938;8.464;2023-06-14T02:20:46;4.43;;;2.50;;
22097;SDS011;11215;51.938;8.464;2023-06-14T02:23:12;2.60;;;2.40;;
22097;SDS011;11215;51.938;8.464;2023-06-14T02:25:38;3.47;;;2.57;;
22097;SDS011;11215;51.938;8.464;2023-06-14T02:28:05;3.53;;;2.50;;
22097;SDS011;11215;51.938;8.464;2023-06-14T02:30:31;7.10;;;2.10;;
22097;SDS011;11215;51.938;8.464;2023-06-14T02:32:57;2.90;;;2.63;;
22097;SDS011;11215;51.938;8.464;2023-06-14T02:35:24;3.33;;;2.43;;
22097;SDS011;11215;51.938;8.464;2023-06-14T02:37:51;2.90;;;2.70;;
22097;SDS011;11215;51.938;8.464;2023-06-14T02:40:18;4.27;;;2.90;;
22097;SDS011;11215;51.938;8.464;2023-06-14T02:42:44;5.50;;;2.70;;
22097;SDS011;11215;51.938;8.464;2023-06-14T02:45:10;3.20;;;2.53;;
22097;SDS011;11215;51.938;8.464;2023-06-14T02:47:36;3.17;;;2.30;;
22097;SDS011;11215;51.938;8.464;2023-06-14T02:50:02;2.43;;;2.23;;
22097;SDS011;11215;51.938;8.464;2023-06-14T02:52:29;2.83;;;2.50;;
22097;SDS011;11215;51.938;8.464;2023-06-14T02:54:54;2.90;;;2.60;;
22097;SDS011;11215;51.938;8.464;2023-06-14T02:57:21;3.40;;;2.73;;
22097;SDS011;11215;51.938;8.464;2023-06-14T02:59:48;3.23;;;2.40;;
22097;SDS011;11215;51.938;8.464;2023-06-14T03:02:14;2.80;;;2.37;;
22097;SDS011;11215;51.938;8.464;2023-06-14T03:04:40;4.27;;;2.73;;
22097;SDS011;11215;51.938;8.464;2023-06-14T03:07:09;3.70;;;2.60;;
22097;SDS011;11215;51.938;8.464;2023-06-14T03:09:36;3.63;;;2.83;;
22097;SDS011;11215;51.938;8.464;2023-06-14T03:12:02;4.10;;;2.53;;
22097;SDS011;11215;51.938;8.464;2023-06-14T03:14:32;3.90;;;2.80;;
22097;SDS011;11215;51.938;8.464;2023-06-14T03:16:58;3.73;;;2.47;;
22097;SDS011;11215;51.938;8.464;2023-06-14T03:19:25;4.07;;;2.70;;
22097;SDS011;11215;51.938;8.464;2023-06-14T03:21:51;2.97;;;2.70;;
22097;SDS011;11215;51.938;8.464;2023-06-14T03:24:18;5.00;;;2.67;;
22097;SDS011;11215;51.938;8.464;2023-06-14T03:26:45;6.43;;;2.47;;
22097;SDS011;11215;51.938;8.464;2023-06-14T03:29:11;4.57;;;2.80;;
22097;SDS011;11215;51.938;8.464;2023-06-14T03:31:41;8.30;;;2.73;;
22097;SDS011;11215;51.938;8.464;2023-06-14T03:34:23;6.30;;;2.40;;
22097;SDS011;11215;51.938;8.464;2023-06-14T03:36:48;5.00;;;2.70;;
22097;SDS011;11215;51.938;8.464;2023-06-14T03:39:14;5.77;;;2.83;;
22097;SDS011;11215;51.938;8.464;2023-06-14T03:41:40;6.47;;;2.33;;
22097;SDS011;11215;51.938;8.464;2023-06-14T03:44:06;4.13;;;2.70;;
22097;SDS011;11215;51.938;8.464;2023-06-14T03:46:32;2.63;;;2.23;;
22097;SDS011;11215;51.938;8.464;2023-06-14T03:48:58;3.87;;;2.27;;
22097;SDS011;11215;51.938;8.464;2023-06-14T03:51:25;8.57;;;2.73;;
22097;SDS011;11215;51.938;8.464;2023-06-14T03:53:51;8.93;;;2.27;;
22097;SDS011;11215;51.938;8.464;2023-06-14T03:56:17;6.00;;;2.60;;
22097;SDS011;11215;51.938;8.464;2023-06-14T03:58:43;4.77;;;2.60;;
22097;SDS011;11215;51.938;8.464;2023-06-14T04:01:08;5.13;;;2.40;;
22097;SDS011;11215;51.938;8.464;2023-06-14T04:03:37;4.73;;;2.43;;
22097;SDS011;11215;51.938;8.464;2023-06-14T04:06:03;3.27;;;2.50;;
22097;SDS011;11215;51.938;8.464;2023-06-14T04:08:30;4.53;;;2.10;;
22097;SDS011;11215;51.938;8.464;2023-06-14T04:10:56;3.37;;;2.20;;
22097;SDS011;11215;51.938;8.464;2023-06-14T04:13:22;3.70;;;2.10;;
22097;SDS011;11215;51.938;8.464;2023-06-14T04:15:47;2.57;;;2.30;;
22097;SDS011;11215;51.938;8.464;2023-06-14T04:18:13;2.30;;;2.10;;
22097;SDS011;11215;51.938;8.464;2023-06-14T04:20:39;3.03;;;2.27;;
22097;SDS011;11215;51.938;8.464;2023-06-14T04:23:16;3.10;;;2.10;;
22097;SDS011;11215;51.938;8.464;2023-06-14T04:25:46;5.73;;;2.33;;
22097;SDS011;11215;51.938;8.464;2023-06-14T04:28:12;4.83;;;1.97;;
22097;SDS011;11215;51.938;8.464;2023-06-14T04:30:40;2.13;;;1.93;;
22097;SDS011;11215;51.938;8.464;2023-06-14T04:33:07;2.13;;;1.93;;
22097;SDS011;11215;51.938;8.464;2023-06-14T04:35:33;2.50;;;2.00;;
22097;SDS011;11215;51.938;8.464;2023-06-14T04:38:01;2.10;;;1.90;;
22097;SDS011;11215;51.938;8.464;2023-06-14T04:40:29;3.60;;;2.27;;
22097;SDS011;11215;51.938;8.464;2023-06-14T04:42:56;2.63;;;2.00;;
22097;SDS011;11215;51.938;8.464;2023-06-14T04:45:22;2.13;;;1.93;;
22097;SDS011;11215;51.938;8.464;2023-06-14T04:47:49;2.67;;;1.80;;
22097;SDS011;11215;51.938;8.464;2023-06-14T04:50:15;3.20;;;2.10;;
22097;SDS011;11215;51.938;8.464;2023-06-14T04:52:41;2.93;;;2.63;;
22097;SDS011;11215;51.938;8.464;2023-06-14T04:55:07;2.27;;;2.07;;
22097;SDS011;11215;51.938;8.464;2023-06-14T04:57:33;2.43;;;2.23;;
22097;SDS011;11215;51.938;8.464;2023-06-14T05:00:00;5.00;;;2.20;;
22097;SDS011;11215;51.938;8.464;2023-06-14T05:02:26;3.33;;;2.27;;
22097;SDS011;11215;51.938;8.464;2023-06-14T05:04:52;4.30;;;2.20;;
22097;SDS011;11215;51.938;8.464;2023-06-14T05:07:18;2.90;;;2.17;;
22097;SDS011;11215;51.938;8.464;2023-06-14T05:09:45;4.07;;;2.27;;
22097;SDS011;11215;51.938;8.464;2023-06-14T05:12:10;2.43;;;2.10;;
22097;SDS011;11215;51.938;8.464;2023-06-14T05:14:36;2.77;;;1.93;;
22097;SDS011;11215;51.938;8.464;2023-06-14T05:17:02;3.27;;;2.17;;
22097;SDS011;11215;51.938;8.464;2023-06-14T05:19:28;2.50;;;2.10;;
22097;SDS011;11215;51.938;8.464;2023-06-14T05:21:54;3.10;;;2.13;;
22097;SDS011;11215;51.938;8.464;2023-06-14T05:24:19;4.35;;;2.05;;
22097;SDS011;11215;51.938;8.464;2023-06-14T05:26:46;4.40;;;2.00;;
22097;SDS011;11215;51.938;8.464;2023-06-14T05:29:12;3.35;;;1.90;;
22097;SDS011;11215;51.938;8.464;2023-06-14T05:31:38;2.03;;;1.40;;
22097;SDS011;11215;51.938;8.464;2023-06-14T05:34:03;2.75;;;1.90;;
22097;SDS011;11215;51.938;8.464;2023-06-14T05:36:30;3.35;;;1.95;;
22097;SDS011;11215;51.938;8.464;2023-06-14T05:38:56;7.03;;;2.05;;
22097;SDS011;11215;51.938;8.464;2023-06-14T05:41:28;2.30;;;2.10;;
22097;SDS011;11215;51.938;8.464;2023-06-14T05:43:54;2.00;;;1.80;;
22097;SDS011;11215;51.938;8.464;2023-06-14T05:46:21;3.40;;;2.08;;
22097;SDS011;11215;51.938;8.464;2023-06-14T05:48:49;1.80;;;1.70;;
22097;SDS011;11215;51.938;8.464;2023-06-14T05:51:16;2.88;;;1.85;;
22097;SDS011;11215;51.938;8.464;2023-06-14T05:53:50;2.60;;;1.85;;
22097;SDS011;11215;51.938;8.464;2023-06-14T05:56:16;1.88;;;1.67;;
22097;SDS011;11215;51.938;8.464;2023-06-14T05:58:43;2.35;;;1.70;;
22097;SDS011;11215;51.938;8.464;2023-06-14T06:01:09;3.33;;;1.67;;
22097;SDS011;11215;51.938;8.464;2023-06-14T06:03:35;1.50;;;1.40;;
22097;SDS011;11215;51.938;8.464;2023-06-14T06:06:01;2.33;;;1.85;;
22097;SDS011;11215;51.938;8.464;2023-06-14T06:08:28;2.85;;;1.63;;
22097;SDS011;11215;51.938;8.464;2023-06-14T06:10:54;3.47;;;1.90;;
22097;SDS011;11215;51.938;8.464;2023-06-14T06:13:19;3.17;;;1.67;;
22097;SDS011;11215;51.938;8.464;2023-06-14T06:15:45;2.10;;;1.90;;
22097;SDS011;11215;51.938;8.464;2023-06-14T06:18:11;1.92;;;1.48;;
22097;SDS011;11215;51.938;8.464;2023-06-14T06:20:37;1.50;;;1.40;;
22097;SDS011;11215;51.938;8.464;2023-06-14T06:23:02;1.70;;;1.58;;
22097;SDS011;11215;51.938;8.464;2023-06-14T06:25:28;3.17;;;1.63;;
22097;SDS011;11215;51.938;8.464;2023-06-14T06:27:57;3.85;;;1.70;;
22097;SDS011;11215;51.938;8.464;2023-06-14T06:30:26;3.05;;;1.83;;
22097;SDS011;11215;51.938;8.464;2023-06-14T06:33:21;2.43;;;1.53;;
22097;SDS011;11215;51.938;8.464;2023-06-14T06:35:47;2.83;;;1.47;;
22097;SDS011;11215;51.938;8.464;2023-06-14T06:38:13;2.40;;;1.43;;
22097;SDS011;11215;51.938;8.464;2023-06-14T06:40:39;2.20;;;1.50;;
22097;SDS011;11215;51.938;8.464;2023-06-14T06:43:05;2.97;;;1.30;;
22097;SDS011;11215;51.938;8.464;2023-06-14T06:45:31;1.90;;;1.40;;
22097;SDS011;11215;51.938;8.464;2023-06-14T06:47:56;2.37;;;1.30;;
22097;SDS011;11215;51.938;8.464;2023-06-14T06:50:22;1.30;;;1.10;;
22097;SDS011;11215;51.938;8.464;2023-06-14T06:52:48;1.17;;;1.07;;
22097;SDS011;11215;51.938;8.464;2023-06-14T06:55:14;2.20;;;0.97;;
22097;SDS011;11215;51.938;8.464;2023-06-14T06:57:40;1.37;;;1.27;;
22097;SDS011;11215;51.938;8.464;2023-06-14T07:00:06;1.23;;;1.13;;
22097;SDS011;11215;51.938;8.464;2023-06-14T07:02:35;1.03;;;1.00;;
22097;SDS011;11215;51.938;8.464;2023-06-14T07:05:02;2.50;;;1.50;;
22097;SDS011;11215;51.938;8.464;2023-06-14T07:07:28;3.00;;;1.20;;
22097;SDS011;11215;51.938;8.464;2023-06-14T07:09:54;2.20;;;1.27;;
22097;SDS011;11215;51.938;8.464;2023-06-14T07:12:22;1.87;;;1.10;;
22097;SDS011;11215;51.938;8.464;2023-06-14T07:14:49;3.07;;;1.20;;
22097;SDS011;11215;51.938;8.464;2023-06-14T07:17:15;1.70;;;1.27;;
22097;SDS011;11215;51.938;8.464;2023-06-14T07:19:41;1.60;;;1.27;;
22097;SDS011;11215;51.938;8.464;2023-06-14T07:22:06;2.43;;;1.40;;
22097;SDS011;11215;51.938;8.464;2023-06-14T07:24:32;2.60;;;1.30;;
22097;SDS011;11215;51.938;8.464;2023-06-14T07:27:01;2.77;;;1.33;;
22097;SDS011;11215;51.938;8.464;2023-06-14T07:29:28;1.67;;;1.53;;
22097;SDS011;11215;51.938;8.464;2023-06-14T07:31:54;3.97;;;1.30;;
22097;SDS011;11215;51.938;8.464;2023-06-14T07:34:20;1.80;;;1.70;;
22097;SDS011;11215;51.938;8.464;2023-06-14T07:36:48;3.10;;;1.37;;
22097;SDS011;11215;51.938;8.464;2023-06-14T07:39:14;1.60;;;1.10;;
22097;SDS011;11215;51.938;8.464;2023-06-14T07:41:40;1.40;;;1.20;;
22097;SDS011;11215;51.938;8.464;2023-06-14T07:44:06;0.93;;;0.93;;
22097;SDS011;11215;51.938;8.464;2023-06-14T07:46:32;2.63;;;1.20;;
22097;SDS011;11215;51.938;8.464;2023-06-14T07:48:59;2.13;;;1.13;;
22097;SDS011;11215;51.938;8.464;2023-06-14T07:51:25;1.33;;;1.20;;
22097;SDS011;11215;51.938;8.464;2023-06-14T07:53:50;1.60;;;1.13;;
22097;SDS011;11215;51.938;8.464;2023-06-14T07:56:16;1.57;;;1.47;;
22097;SDS011;11215;51.938;8.464;2023-06-14T07:58:42;1.20;;;1.10;;
22097;SDS011;11215;51.938;8.464;2023-06-14T08:01:08;2.47;;;1.20;;
22097;SDS011;11215;51.938;8.464;2023-06-14T08:03:34;4.47;;;1.50;;
22097;SDS011;11215;51.938;8.464;2023-06-14T08:06:00;1.40;;;1.00;;
22097;SDS011;11215;51.938;8.464;2023-06-14T08:08:29;1.27;;;1.17;;
22097;SDS011;11215;51.938;8.464;2023-06-14T08:10:55;1.63;;;1.30;;
22097;SDS011;11215;51.938;8.464;2023-06-14T08:13:21;1.50;;;1.17;;
22097;SDS011;11215;51.938;8.464;2023-06-14T08:15:47;1.23;;;1.10;;
22097;SDS011;11215;51.938;8.464;2023-06-14T08:18:12;0.93;;;0.93;;
22097;SDS011;11215;51.938;8.464;2023-06-14T08:20:39;1.60;;;1.33;;
22097;SDS011;11215;51.938;8.464;2023-06-14T08:23:05;2.57;;;1.40;;
22097;SDS011;11215;51.938;8.464;2023-06-14T08:25:31;1.57;;;1.47;;
22097;SDS011;11215;51.938;8.464;2023-06-14T08:27:56;2.57;;;1.27;;
22097;SDS011;11215;51.938;8.464;2023-06-14T08:30:22;2.37;;;1.73;;
22097;SDS011;11215;51.938;8.464;2023-06-14T08:32:48;1.37;;;1.27;;
22097;SDS011;11215;51.938;8.464;2023-06-14T08:35:14;1.97;;;1.37;;
22097;SDS011;11215;51.938;8.464;2023-06-14T08:37:40;1.57;;;1.37;;
22097;SDS011;11215;51.938;8.464;2023-06-14T08:40:17;2.30;;;1.40;;
22097;SDS011;11215;51.938;8.464;2023-06-14T08:42:46;1.60;;;1.50;;
22097;SDS011;11215;51.938;8.464;2023-06-14T08:45:16;2.87;;;1.50;;
22097;SDS011;11215;51.938;8.464;2023-06-14T08:47:44;2.40;;;1.40;;
22097;SDS011;11215;51.938;8.464;2023-06-14T08:50:10;2.33;;;1.80;;
22097;SDS011;11215;51.938;8.464;2023-06-14T08:52:37;3.67;;;1.80;;
22097;SDS011;11215;51.938;8.464;2023-06-14T08:55:10;2.87;;;2.00;;
22097;SDS011;11215;51.938;8.464;2023-06-14T08:57:36;4.43;;;1.90;;
22097;SDS011;11215;51.938;8.464;2023-06-14T09:00:03;3.83;;;1.43;;
22097;SDS011;11215;51.938;8.464;2023-06-14T09:02:37;2.37;;;1.80;;
22097;SDS011;11215;51.938;8.464;2023-06-14T09:05:03;2.83;;;1.50;;
22097;SDS011;11215;51.938;8.464;2023-06-14T09:07:29;7.63;;;1.80;;
22097;SDS011;11215;51.938;8.464;2023-06-14T09:10:07;2.73;;;1.63;;
22097;SDS011;11215;51.938;8.464;2023-06-14T09:12:36;1.90;;;1.70;;
22097;SDS011;11215;51.938;8.464;2023-06-14T09:15:03;5.07;;;1.90;;
22097;SDS011;11215;51.938;8.464;2023-06-14T09:17:36;2.73;;;1.87;;
22097;SDS011;11215;51.938;8.464;2023-06-14T09:20:02;1.90;;;1.37;;
22097;SDS011;11215;51.938;8.464;2023-06-14T09:22:33;3.57;;;1.90;;
22097;SDS011;11215;51.938;8.464;2023-06-14T09:24:59;2.00;;;1.67;;
22097;SDS011;11215;51.938;8.464;2023-06-14T09:27:26;3.27;;;1.87;;
22097;SDS011;11215;51.938;8.464;2023-06-14T09:29:52;2.07;;;1.77;;
22097;SDS011;11215;51.938;8.464;2023-06-14T09:32:18;2.43;;;1.77;;
22097;SDS011;11215;51.938;8.464;2023-06-14T09:34:45;2.03;;;1.80;;
22097;SDS011;11215;51.938;8.464;2023-06-14T09:37:10;1.47;;;1.37;;
22097;SDS011;11215;51.938;8.464;2023-06-14T09:39:49;2.23;;;1.70;;
22097;SDS011;11215;51.938;8.464;2023-06-14T09:42:16;3.73;;;1.70;;
22097;SDS011;11215;51.938;8.464;2023-06-14T09:44:43;2.33;;;1.73;;
22097;SDS011;11215;51.938;8.464;2023-06-14T09:47:14;1.77;;;1.60;;
22097;SDS011;11215;51.938;8.464;2023-06-14T09:49:41;2.50;;;1.90;;
22097;SDS011;11215;51.938;8.464;2023-06-14T09:52:08;2.63;;;1.90;;
22097;SDS011;11215;51.938;8.464;2023-06-14T09:54:42;2.60;;;1.93;;
22097;SDS011;11215;51.938;8.464;2023-06-14T09:57:12;2.40;;;2.00;;
22097;SDS011;11215;51.938;8.464;2023-06-14T09:59:45;2.40;;;1.90;;
22097;SDS011;11215;51.938;8.464;2023-06-14T10:05:06;3.57;;;1.80;;
22097;SDS011;11215;51.938;8.464;2023-06-14T10:07:40;2.00;;;1.80;;
22097;SDS011;11215;51.938;8.464;2023-06-14T10:10:09;1.93;;;1.60;;
22097;SDS011;11215;51.938;8.464;2023-06-14T10:12:35;1.50;;;1.40;;
22097;SDS011;11215;51.938;8.464;2023-06-14T10:17:47;3.37;;;1.83;;
22097;SDS011;11215;51.938;8.464;2023-06-14T10:22:55;2.80;;;1.77;;
22097;SDS011;11215;51.938;8.464;2023-06-14T10:25:28;2.23;;;1.70;;
22097;SDS011;11215;51.938;8.464;2023-06-14T10:28:14;4.97;;;2.10;;
22097;SDS011;11215;51.938;8.464;2023-06-14T10:33:33;4.97;;;2.47;;
22097;SDS011;11215;51.938;8.464;2023-06-14T10:39:16;2.97;;;1.80;;
22097;SDS011;11215;51.938;8.464;2023-06-14T10:41:50;2.23;;;2.03;;
22097;SDS011;11215;51.938;8.464;2023-06-14T10:49:17;2.03;;;1.90;;
22097;SDS011;11215;51.938;8.464;2023-06-14T10:51:44;1.97;;;1.77;;
22097;SDS011;11215;51.938;8.464;2023-06-14T10:54:14;2.07;;;1.93;;
22097;SDS011;11215;51.938;8.464;2023-06-14T10:56:51;3.17;;;1.80;;
22097;SDS011;11215;51.938;8.464;2023-06-14T10:59:18;2.40;;;2.20;;
22097;SDS011;11215;51.938;8.464;2023-06-14T11:01:58;2.00;;;1.90;;
22097;SDS011;11215;51.938;8.464;2023-06-14T11:04:47;2.60;;;2.40;;
22097;SDS011;11215;51.938;8.464;2023-06-14T11:10:05;2.37;;;1.60;;
22097;SDS011;11215;51.938;8.464;2023-06-14T11:12:40;1.70;;;1.60;;
22097;SDS011;11215;51.938;8.464;2023-06-14T11:15:10;6.77;;;2.30;;
22097;SDS011;11215;51.938;8.464;2023-06-14T11:17:36;2.00;;;1.90;;
22097;SDS011;11215;51.938;8.464;2023-06-14T11:20:08;1.70;;;1.60;;
22097;SDS011;11215;51.938;8.464;2023-06-14T11:22:44;2.47;;;1.70;;
22097;SDS011;11215;51.938;8.464;2023-06-14T11:25:13;2.03;;;1.63;;
22097;SDS011;11215;51.938;8.464;2023-06-14T11:27:43;4.30;;;1.70;;
22097;SDS011;11215;51.938;8.464;2023-06-14T11:30:09;2.35;;;1.80;;
22097;SDS011;11215;51.938;8.464;2023-06-14T11:32:36;2.55;;;1.98;;
22097;SDS011;11215;51.938;8.464;2023-06-14T11:35:03;1.92;;;1.73;;
22097;SDS011;11215;51.938;8.464;2023-06-14T11:37:32;1.70;;;1.60;;
22097;SDS011;11215;51.938;8.464;2023-06-14T11:39:59;1.52;;;1.42;;
22097;SDS011;11215;51.938;8.464;2023-06-14T11:42:29;1.93;;;1.83;;
22097;SDS011;11215;51.938;8.464;2023-06-14T11:44:55;1.63;;;1.52;;
22097;SDS011;11215;51.938;8.464;2023-06-14T11:47:21;1.75;;;1.55;;
22097;SDS011;11215;51.938;8.464;2023-06-14T11:49:47;4.28;;;1.77;;
22097;SDS011;11215;51.938;8.464;2023-06-14T11:52:13;2.65;;;1.60;;
22097;SDS011;11215;51.938;8.464;2023-06-14T11:54:39;2.90;;;1.80;;
22097;SDS011;11215;51.938;8.464;2023-06-14T11:57:07;2.50;;;2.30;;
22097;SDS011;11215;51.938;8.464;2023-06-14T11:59:40;2.10;;;1.92;;
22097;SDS011;11215;51.938;8.464;2023-06-14T12:02:09;2.70;;;2.10;;
22097;SDS011;11215;51.938;8.464;2023-06-14T12:04:40;5.13;;;2.03;;
22097;SDS011;11215;51.938;8.464;2023-06-14T12:07:09;3.08;;;1.95;;
22097;SDS011;11215;51.938;8.464;2023-06-14T12:09:42;2.10;;;1.90;;
22097;SDS011;11215;51.938;8.464;2023-06-14T12:12:34;1.90;;;1.75;;
22097;SDS011;11215;51.938;8.464;2023-06-14T12:15:04;1.83;;;1.73;;
22097;SDS011;11215;51.938;8.464;2023-06-14T12:17:33;1.55;;;1.45;;
22097;SDS011;11215;51.938;8.464;2023-06-14T12:20:04;3.83;;;1.90;;
22097;SDS011;11215;51.938;8.464;2023-06-14T12:22:38;1.88;;;1.73;;
22097;SDS011;11215;51.938;8.464;2023-06-14T12:25:26;2.33;;;1.77;;
22097;SDS011;11215;51.938;8.464;2023-06-14T12:27:53;1.65;;;1.55;;
22097;SDS011;11215;51.938;8.464;2023-06-14T12:30:19;2.10;;;1.90;;
22097;SDS011;11215;51.938;8.464;2023-06-14T12:32:45;4.55;;;2.10;;
22097;SDS011;11215;51.938;8.464;2023-06-14T12:35:11;1.50;;;1.40;;
22097;SDS011;11215;51.938;8.464;2023-06-14T12:37:37;2.17;;;1.90;;
22097;SDS011;11215;51.938;8.464;2023-06-14T12:40:03;1.95;;;1.67;;
22097;SDS011;11215;51.938;8.464;2023-06-14T12:42:31;3.30;;;1.80;;
22097;SDS011;11215;51.938;8.464;2023-06-14T12:44:59;1.92;;;1.83;;
22097;SDS011;11215;51.938;8.464;2023-06-14T12:47:25;1.73;;;1.60;;
22097;SDS011;11215;51.938;8.464;2023-06-14T12:49:51;2.70;;;1.90;;
22097;SDS011;11215;51.938;8.464;2023-06-14T12:52:16;2.08;;;1.30;;
22097;SDS011;11215;51.938;8.464;2023-06-14T12:54:42;3.10;;;1.88;;
22097;SDS011;11215;51.938;8.464;2023-06-14T12:57:08;2.30;;;1.92;;
22097;SDS011;11215;51.938;8.464;2023-06-14T12:59:34;1.50;;;1.40;;
22097;SDS011;11215;51.938;8.464;2023-06-14T13:04:56;1.42;;;1.33;;
22097;SDS011;11215;51.938;8.464;2023-06-14T13:07:24;2.20;;;1.63;;
22097;SDS011;11215;51.938;8.464;2023-06-14T13:09:50;2.58;;;1.48;;
22097;SDS011;11215;51.938;8.464;2023-06-14T13:12:15;1.98;;;1.88;;
22097;SDS011;11215;51.938;8.464;2023-06-14T13:14:41;2.40;;;1.60;;
22097;SDS011;11215;51.938;8.464;2023-06-14T13:17:10;1.90;;;1.70;;
22097;SDS011;11215;51.938;8.464;2023-06-14T13:19:36;2.03;;;1.73;;
22097;SDS011;11215;51.938;8.464;2023-06-14T13:22:03;1.90;;;1.75;;
22097;SDS011;11215;51.938;8.464;2023-06-14T13:24:30;1.88;;;1.77;;
22097;SDS011;11215;51.938;8.464;2023-06-14T13:26:56;2.17;;;1.90;;
22097;SDS011;11215;51.938;8.464;2023-06-14T13:29:22;1.80;;;1.70;;
22097;SDS011;11215;51.938;8.464;2023-06-14T13:31:49;1.42;;;1.33;;
22097;SDS011;11215;51.938;8.464;2023-06-14T13:34:16;2.00;;;1.73;;
22097;SDS011;11215;51.938;8.464;2023-06-14T13:36:41;1.60;;;1.50;;
22097;SDS011;11215;51.938;8.464;2023-06-14T13:39:07;4.25;;;2.20;;
22097;SDS011;11215;51.938;8.464;2023-06-14T13:41:33;2.80;;;1.48;;
22097;SDS011;11215;51.938;8.464;2023-06-14T13:43:59;1.63;;;1.52;;
22097;SDS011;11215;51.938;8.464;2023-06-14T13:46:25;1.70;;;1.60;;
22097;SDS011;11215;51.938;8.464;2023-06-14T13:48:51;1.67;;;1.58;;
22097;SDS011;11215;51.938;8.464;2023-06-14T13:51:17;1.52;;;1.42;;
22097;SDS011;11215;51.938;8.464;2023-06-14T13:53:47;4.53;;;1.70;;
22097;SDS011;11215;51.938;8.464;2023-06-14T13:56:14;3.53;;;1.58;;
22097;SDS011;11215;51.938;8.464;2023-06-14T13:58:40;1.50;;;1.30;;
22097;SDS011;11215;51.938;8.464;2023-06-14T14:01:06;1.70;;;1.20;;
22097;SDS011;11215;51.938;8.464;2023-06-14T14:03:33;2.47;;;1.40;;
22097;SDS011;11215;51.938;8.464;2023-06-14T14:06:00;1.83;;;1.23;;
22097;SDS011;11215;51.938;8.464;2023-06-14T14:08:27;3.00;;;1.60;;
22097;SDS011;11215;51.938;8.464;2023-06-14T14:10:52;1.60;;;1.40;;
22097;SDS011;11215;51.938;8.464;2023-06-14T14:13:19;2.47;;;1.55;;
22097;SDS011;11215;51.938;8.464;2023-06-14T14:15:46;3.33;;;1.40;;
22097;SDS011;11215;51.938;8.464;2023-06-14T14:18:11;1.65;;;1.55;;
22097;SDS011;11215;51.938;8.464;2023-06-14T14:20:38;1.75;;;1.65;;
22097;SDS011;11215;51.938;8.464;2023-06-14T14:23:04;1.60;;;1.50;;
22097;SDS011;11215;51.938;8.464;2023-06-14T14:25:30;1.70;;;1.58;;
22097;SDS011;11215;51.938;8.464;2023-06-14T14:27:56;2.33;;;1.40;;
22097;SDS011;11215;51.938;8.464;2023-06-14T14:30:22;1.52;;;1.42;;
22097;SDS011;11215;51.938;8.464;2023-06-14T14:32:49;2.55;;;1.23;;
22097;SDS011;11215;51.938;8.464;2023-06-14T14:35:16;1.63;;;1.38;;
22097;SDS011;11215;51.938;8.464;2023-06-14T14:37:44;3.00;;;1.60;;
22097;SDS011;11215;51.938;8.464;2023-06-14T14:40:10;1.60;;;1.50;;
22097;SDS011;11215;51.938;8.464;2023-06-14T14:42:36;2.10;;;1.55;;
22097;SDS011;11215;51.938;8.464;2023-06-14T14:45:02;3.53;;;1.50;;
22097;SDS011;11215;51.938;8.464;2023-06-14T14:47:29;1.58;;;1.48;;
22097;SDS011;11215;51.938;8.464;2023-06-14T14:49:55;2.50;;;1.60;;
22097;SDS011;11215;51.938;8.464;2023-06-14T14:52:20;2.10;;;1.50;;
22097;SDS011;11215;51.938;8.464;2023-06-14T14:54:46;2.08;;;1.88;;
22097;SDS011;11215;51.938;8.464;2023-06-14T14:57:12;1.70;;;1.60;;
22097;SDS011;11215;51.938;8.464;2023-06-14T14:59:38;2.60;;;1.65;;
22097;SDS011;11215;51.938;8.464;2023-06-14T15:02:05;4.35;;;2.05;;
22097;SDS011;11215;51.938;8.464;2023-06-14T15:04:31;2.00;;;1.90;;
22097;SDS011;11215;51.938;8.464;2023-06-14T15:06:57;1.98;;;1.83;;
22097;SDS011;11215;51.938;8.464;2023-06-14T15:09:23;3.92;;;1.67;;
22097;SDS011;11215;51.938;8.464;2023-06-14T15:11:49;2.92;;;1.95;;
22097;SDS011;11215;51.938;8.464;2023-06-14T15:14:15;2.60;;;2.03;;